Time;durP1;ratioP1;P1;durP2;ratioP2;P2;SDS_P1;SDS_P2;PMS_P1;PMS_P2;Temp;Humidity;BMP_temperature;BMP_pressure;BME280_temperature;BME280_humidity;BME280_pressure;Samples;Min_cycle;Max_cycle;Signal;HPM_P1;HPM_P2
2023/01/25 00:00:52;;;;;;;38.30;25.75;;;;;;;;;;6220185;23;20067;-78
2023/01/25 00:03:18;;;;;;;36.08;24.30;;;;;;;;;;6213713;23;20350;-77
2023/01/25 00:05:44;;;;;;;42.05;26.83;;;;;;;;;;6229371;23;20013;-77
2023/01/25 00:08:10;;;;;;;37.97;25.35;;;;;;;;;;6229004;23;20020;-78
2023/01/25 00:10:37;;;;;;;37.35;23.80;;;;;;;;;;6212225;23;20024;-78
2023/01/25 00:13:03;;;;;;;40.67;25.30;;;;;;;;;;6199240;23;20395;-78
2023/01/25 00:15:29;;;;;;;36.20;24.80;;;;;;;;;;6198512;23;20017;-77
2023/01/25 00:17:55;;;;;;;37.85;25.65;;;;;;;;;;6173980;23;20039;-78
2023/01/25 00:20:22;;;;;;;40.72;25.95;;;;;;;;;;6198530;23;20016;-78
2023/01/25 00:22:48;;;;;;;37.05;25.27;;;;;;;;;;6197786;23;20440;-78
2023/01/25 00:25:14;;;;;;;36.50;24.52;;;;;;;;;;6198618;23;20028;-78
2023/01/25 00:27:40;;;;;;;38.72;26.23;;;;;;;;;;6205895;23;20059;-78
2023/01/25 00:30:06;;;;;;;42.42;26.92;;;;;;;;;;6207866;23;20688;-78
2023/01/25 00:32:51;;;;;;;43.25;27.17;;;;;;;;;;6209383;23;20022;-78
2023/01/25 00:35:17;;;;;;;37.25;26.15;;;;;;;;;;6207737;23;20024;-77
2023/01/25 00:37:48;;;;;;;43.40;27.63;;;;;;;;;;6175405;23;20023;-77
2023/01/25 00:40:15;;;;;;;41.00;28.25;;;;;;;;;;6198183;23;20012;-77
2023/01/25 00:42:41;;;;;;;39.85;26.23;;;;;;;;;;6197091;23;20020;-77
2023/01/25 00:45:08;;;;;;;45.03;27.95;;;;;;;;;;6196049;23;20020;-78
2023/01/25 00:47:34;;;;;;;42.60;26.27;;;;;;;;;;6196463;23;20020;-78
2023/01/25 00:50:00;;;;;;;45.60;28.48;;;;;;;;;;6171330;23;20067;-78
2023/01/25 00:52:27;;;;;;;42.95;26.90;;;;;;;;;;6195921;23;20119;-78
2023/01/25 00:54:53;;;;;;;45.22;28.60;;;;;;;;;;6196253;23;20135;-78
2023/01/25 00:57:19;;;;;;;41.17;26.48;;;;;;;;;;6195402;23;20059;-78
2023/01/25 00:59:46;;;;;;;44.72;27.92;;;;;;;;;;6171292;23;20095;-78
2023/01/25 01:02:12;;;;;;;41.75;27.48;;;;;;;;;;6171425;23;20024;-78
2023/01/25 01:04:38;;;;;;;43.55;27.73;;;;;;;;;;6198385;23;20062;-78
2023/01/25 01:07:04;;;;;;;44.92;28.77;;;;;;;;;;6171132;23;20099;-78
2023/01/25 01:09:31;;;;;;;47.05;29.55;;;;;;;;;;6196149;23;20020;-78
2023/01/25 01:11:57;;;;;;;49.65;29.13;;;;;;;;;;6199276;23;20020;-78
2023/01/25 01:14:25;;;;;;;43.92;27.52;;;;;;;;;;6196139;23;20051;-78
2023/01/25 01:16:51;;;;;;;43.42;26.63;;;;;;;;;;6194732;23;20342;-78
2023/01/25 01:19:17;;;;;;;44.05;27.67;;;;;;;;;;6195863;23;20917;-78
2023/01/25 01:21:43;;;;;;;44.53;27.77;;;;;;;;;;6170746;23;20111;-78
2023/01/25 01:24:10;;;;;;;44.35;27.15;;;;;;;;;;6170909;23;20044;-75
2023/01/25 01:26:36;;;;;;;46.97;26.92;;;;;;;;;;6195269;23;20052;-78
2023/01/25 01:29:03;;;;;;;42.58;26.25;;;;;;;;;;6196238;23;20419;-77
2023/01/25 01:31:29;;;;;;;43.00;27.38;;;;;;;;;;6196308;23;20425;-78
2023/01/25 01:33:57;;;;;;;44.70;29.52;;;;;;;;;;6194359;23;20027;-77
2023/01/25 01:36:24;;;;;;;44.17;27.23;;;;;;;;;;6198354;23;20036;-79
2023/01/25 01:38:50;;;;;;;43.95;27.10;;;;;;;;;;6194639;23;20027;-77
2023/01/25 01:41:16;;;;;;;43.05;26.58;;;;;;;;;;6194884;23;20886;-78
2023/01/25 01:43:42;;;;;;;46.65;26.42;;;;;;;;;;6169925;23;20664;-78
2023/01/25 01:46:11;;;;;;;43.30;26.70;;;;;;;;;;6198016;23;20640;-78
2023/01/25 01:48:50;;;;;;;42.92;25.35;;;;;;;;;;6205749;23;20048;-77
2023/01/25 01:51:18;;;;;;;42.80;26.40;;;;;;;;;;6190646;23;20397;-77
2023/01/25 01:53:46;;;;;;;37.38;22.83;;;;;;;;;;6213075;23;20090;-78
2023/01/25 01:56:14;;;;;;;37.90;25.15;;;;;;;;;;6226656;23;20095;-77
2023/01/25 01:58:42;;;;;;;40.60;25.88;;;;;;;;;;6225555;23;20073;-78
2023/01/25 02:01:08;;;;;;;42.45;26.95;;;;;;;;;;6206484;23;20091;-76
2023/01/25 02:03:34;;;;;;;38.50;24.00;;;;;;;;;;6196397;23;20016;-78
2023/01/25 02:06:03;;;;;;;41.55;25.10;;;;;;;;;;6169678;23;20044;-77
2023/01/25 02:08:33;;;;;;;40.92;26.00;;;;;;;;;;6197172;23;20372;-77
2023/01/25 02:11:00;;;;;;;43.28;25.73;;;;;;;;;;6200338;23;20017;-77
2023/01/25 02:13:26;;;;;;;45.95;27.40;;;;;;;;;;6198264;23;20027;-77
2023/01/25 02:15:55;;;;;;;42.00;25.75;;;;;;;;;;6197426;23;20265;-77
2023/01/25 02:18:21;;;;;;;40.90;23.92;;;;;;;;;;6203580;23;20341;-76
2023/01/25 02:20:52;;;;;;;38.63;25.63;;;;;;;;;;6207346;23;20012;-77
2023/01/25 02:23:33;;;;;;;45.05;25.35;;;;;;;;;;6204350;23;20088;-76
2023/01/25 02:26:01;;;;;;;38.65;23.05;;;;;;;;;;6209508;23;20039;-76
2023/01/25 02:28:30;;;;;;;38.63;24.35;;;;;;;;;;6213726;23;20326;-76
2023/01/25 02:30:56;;;;;;;40.35;23.60;;;;;;;;;;6213399;23;20024;-76
2023/01/25 02:33:22;;;;;;;41.92;24.17;;;;;;;;;;6213666;23;20068;-78
2023/01/25 02:35:50;;;;;;;40.75;22.90;;;;;;;;;;6190312;23;20082;-77
2023/01/25 02:38:18;;;;;;;39.65;24.10;;;;;;;;;;6218713;23;20017;-78
2023/01/25 02:40:48;;;;;;;41.63;23.98;;;;;;;;;;6189274;23;20024;-77
2023/01/25 02:43:15;;;;;;;44.20;25.08;;;;;;;;;;6212594;23;20009;-78
2023/01/25 02:45:43;;;;;;;43.95;24.40;;;;;;;;;;6221710;23;20972;-77
2023/01/25 02:48:09;;;;;;;45.03;25.80;;;;;;;;;;6221362;23;20082;-77
2023/01/25 02:50:35;;;;;;;48.85;27.17;;;;;;;;;;6192485;23;20048;-77
2023/01/25 02:53:01;;;;;;;41.95;24.80;;;;;;;;;;6219746;23;20024;-77
2023/01/25 02:55:27;;;;;;;33.70;19.23;;;;;;;;;;6219009;23;20028;-78
2023/01/25 02:57:53;;;;;;;44.30;25.63;;;;;;;;;;6160172;23;20024;-77
2023/01/25 03:00:20;;;;;;;46.88;27.80;;;;;;;;;;6208669;23;20061;-78
2023/01/25 03:02:46;;;;;;;49.78;29.27;;;;;;;;;;6209345;23;20017;-77
2023/01/25 03:05:12;;;;;;;50.05;29.10;;;;;;;;;;6206744;23;20087;-78
2023/01/25 03:07:38;;;;;;;50.30;28.35;;;;;;;;;;6178801;23;20028;-78
2023/01/25 03:10:05;;;;;;;49.15;28.00;;;;;;;;;;6208538;23;20119;-78
2023/01/25 03:12:31;;;;;;;50.17;28.17;;;;;;;;;;6201496;23;20016;-76
2023/01/25 03:14:57;;;;;;;45.97;26.98;;;;;;;;;;6198725;23;20024;-76
2023/01/25 03:17:23;;;;;;;53.65;30.73;;;;;;;;;;6197409;23;20083;-76
2023/01/25 03:19:50;;;;;;;48.35;28.55;;;;;;;;;;6198652;23;20023;-77
2023/01/25 03:22:16;;;;;;;48.58;28.17;;;;;;;;;;6171197;23;20028;-76
2023/01/25 03:24:42;;;;;;;50.47;28.77;;;;;;;;;;6194948;23;20016;-76
2023/01/25 03:27:13;;;;;;;51.40;29.88;;;;;;;;;;6197172;23;20083;-75
2023/01/25 03:29:40;;;;;;;49.20;28.75;;;;;;;;;;6197471;23;20028;-76
2023/01/25 03:32:06;;;;;;;51.95;28.17;;;;;;;;;;6198475;23;20020;-76
2023/01/25 03:34:32;;;;;;;48.88;27.95;;;;;;;;;;6201010;23;20079;-76
2023/01/25 03:36:58;;;;;;;56.08;31.92;;;;;;;;;;6203242;23;20016;-76
2023/01/25 03:39:24;;;;;;;50.83;29.45;;;;;;;;;;6182515;23;20017;-76
2023/01/25 03:41:51;;;;;;;54.67;31.20;;;;;;;;;;6210289;23;20023;-76
2023/01/25 03:44:17;;;;;;;48.15;28.00;;;;;;;;;;6209647;23;20044;-76
2023/01/25 03:46:43;;;;;;;47.55;27.50;;;;;;;;;;6222586;23;20050;-76
2023/01/25 03:49:09;;;;;;;49.63;29.20;;;;;;;;;;6222528;23;20025;-75
2023/01/25 03:51:35;;;;;;;46.00;25.90;;;;;;;;;;6211925;23;20066;-75
2023/01/25 03:54:01;;;;;;;49.45;29.05;;;;;;;;;;6201376;23;20026;-75
2023/01/25 03:56:27;;;;;;;51.05;28.73;;;;;;;;;;6202124;23;20331;-75
2023/01/25 03:58:55;;;;;;;45.55;24.15;;;;;;;;;;6199513;23;20027;-75
2023/01/25 04:01:21;;;;;;;44.28;25.52;;;;;;;;;;6198249;23;20012;-75
2023/01/25 04:03:47;;;;;;;52.72;30.42;;;;;;;;;;6170513;23;20016;-76
2023/01/25 04:06:13;;;;;;;49.10;27.40;;;;;;;;;;6171808;23;20107;-76
2023/01/25 04:08:39;;;;;;;50.85;28.85;;;;;;;;;;6196177;23;20021;-76
2023/01/25 04:11:06;;;;;;;54.92;31.75;;;;;;;;;;6172638;23;20059;-76
2023/01/25 04:13:36;;;;;;;48.15;26.75;;;;;;;;;;6169857;23;20715;-76
2023/01/25 04:16:03;;;;;;;54.67;28.88;;;;;;;;;;6194577;23;20008;-75
2023/01/25 04:18:29;;;;;;;52.28;28.70;;;;;;;;;;6195017;23;20016;-75
2023/01/25 04:20:55;;;;;;;47.88;26.50;;;;;;;;;;6195980;23;20021;-75
2023/01/25 04:23:22;;;;;;;50.65;28.90;;;;;;;;;;6196784;23;20013;-76
2023/01/25 04:25:55;;;;;;;48.75;29.02;;;;;;;;;;6197764;23;20043;-76
2023/01/25 04:28:21;;;;;;;51.90;27.48;;;;;;;;;;6201656;23;20119;-76
2023/01/25 04:30:47;;;;;;;48.60;27.02;;;;;;;;;;6199739;23;20095;-76
2023/01/25 04:33:14;;;;;;;52.60;30.10;;;;;;;;;;6174805;23;20036;-76
2023/01/25 04:35:40;;;;;;;49.33;29.10;;;;;;;;;;6173674;23;20141;-76
2023/01/25 04:38:06;;;;;;;56.20;30.17;;;;;;;;;;6174553;23;20017;-76
2023/01/25 04:40:32;;;;;;;52.17;29.73;;;;;;;;;;6201518;23;20012;-76
2023/01/25 04:42:58;;;;;;;53.85;27.77;;;;;;;;;;6176136;23;20351;-75
2023/01/25 04:45:25;;;;;;;52.47;28.83;;;;;;;;;;6199939;23;20050;-75
2023/01/25 04:47:58;;;;;;;53.63;30.10;;;;;;;;;;6201295;23;20015;-76
2023/01/25 04:50:24;;;;;;;58.33;30.42;;;;;;;;;;6175853;23;20030;-76
2023/01/25 04:52:50;;;;;;;53.75;29.38;;;;;;;;;;6198647;23;20020;-76
2023/01/25 04:55:17;;;;;;;54.00;28.90;;;;;;;;;;6175648;23;20024;-76
2023/01/25 04:57:43;;;;;;;48.63;26.40;;;;;;;;;;6175095;23;20024;-76
2023/01/25 05:00:09;;;;;;;58.47;30.35;;;;;;;;;;6175236;23;20016;-75
2023/01/25 05:02:35;;;;;;;56.33;29.75;;;;;;;;;;6177501;23;20031;-76
2023/01/25 05:05:02;;;;;;;55.92;30.10;;;;;;;;;;6202404;23;20070;-76
2023/01/25 05:07:29;;;;;;;59.45;31.33;;;;;;;;;;6200414;23;20668;-76
2023/01/25 05:09:55;;;;;;;57.65;32.13;;;;;;;;;;6200798;23;20020;-77
2023/01/25 05:12:21;;;;;;;61.80;32.17;;;;;;;;;;6227402;23;20051;-75
2023/01/25 05:14:47;;;;;;;61.15;32.85;;;;;;;;;;6200244;23;20066;-76
2023/01/25 05:17:13;;;;;;;58.33;31.58;;;;;;;;;;6175228;23;20027;-75
2023/01/25 05:19:39;;;;;;;64.35;33.80;;;;;;;;;;6226442;23;20016;-76
2023/01/25 05:22:06;;;;;;;62.28;32.55;;;;;;;;;;6200456;23;20091;-75
2023/01/25 05:24:33;;;;;;;64.63;33.55;;;;;;;;;;6177640;23;20020;-75
2023/01/25 05:26:59;;;;;;;63.58;34.47;;;;;;;;;;6212349;23;20047;-76
2023/01/25 05:29:37;;;;;;;67.70;35.97;;;;;;;;;;6219589;23;20020;-76
2023/01/25 05:32:07;;;;;;;67.85;34.03;;;;;;;;;;6221341;23;20308;-77
2023/01/25 05:34:34;;;;;;;65.55;35.10;;;;;;;;;;6233802;22;20024;-76
2023/01/25 05:37:01;;;;;;;65.72;35.25;;;;;;;;;;6233476;23;20012;-76
2023/01/25 05:39:27;;;;;;;70.53;37.03;;;;;;;;;;6232828;23;20015;-76
2023/01/25 05:41:53;;;;;;;63.42;33.08;;;;;;;;;;6179877;23;20353;-77
2023/01/25 05:44:19;;;;;;;67.85;34.10;;;;;;;;;;6202765;23;20063;-76
2023/01/25 05:46:45;;;;;;;67.55;36.40;;;;;;;;;;6230264;23;20026;-76
2023/01/25 05:49:11;;;;;;;74.68;35.45;;;;;;;;;;6229491;23;20012;-76
2023/01/25 05:51:38;;;;;;;71.90;37.17;;;;;;;;;;6203655;23;20019;-76
2023/01/25 05:54:05;;;;;;;65.88;36.13;;;;;;;;;;6179376;23;20493;-75
2023/01/25 05:56:31;;;;;;;70.78;36.03;;;;;;;;;;6202446;23;20731;-76
2023/01/25 05:58:58;;;;;;;75.30;36.42;;;;;;;;;;6227826;23;20449;-76
2023/01/25 06:01:25;;;;;;;71.05;35.88;;;;;;;;;;6200885;23;20061;-76
2023/01/25 06:03:52;;;;;;;73.18;37.38;;;;;;;;;;6176974;23;20015;-77
2023/01/25 06:06:20;;;;;;;75.18;37.60;;;;;;;;;;6202186;23;20024;-76
2023/01/25 06:08:46;;;;;;;73.10;36.88;;;;;;;;;;6203727;23;20012;-75
2023/01/25 06:11:14;;;;;;;72.38;39.22;;;;;;;;;;6205360;23;20020;-76
2023/01/25 06:13:40;;;;;;;73.15;38.78;;;;;;;;;;6204314;23;20016;-75
2023/01/25 06:16:06;;;;;;;76.93;39.65;;;;;;;;;;6181045;23;20111;-75
2023/01/25 06:18:33;;;;;;;79.15;38.00;;;;;;;;;;6203220;23;20023;-75
2023/01/25 06:21:00;;;;;;;72.28;35.53;;;;;;;;;;6201993;23;20020;-75
2023/01/25 06:23:26;;;;;;;73.60;36.58;;;;;;;;;;6203568;23;20103;-75
2023/01/25 06:25:55;;;;;;;76.55;39.00;;;;;;;;;;6179231;23;20074;-76
2023/01/25 06:28:21;;;;;;;65.93;33.53;;;;;;;;;;6234379;23;20028;-76
2023/01/25 06:30:47;;;;;;;70.82;34.85;;;;;;;;;;6207797;23;20012;-75
2023/01/25 06:33:14;;;;;;;74.75;37.47;;;;;;;;;;6216979;23;20031;-75
2023/01/25 06:35:42;;;;;;;69.05;35.42;;;;;;;;;;6220915;23;20087;-76
2023/01/25 06:38:08;;;;;;;75.20;34.67;;;;;;;;;;6189666;23;20017;-76
2023/01/25 06:40:34;;;;;;;75.78;37.25;;;;;;;;;;6202532;23;20747;-76
2023/01/25 06:43:08;;;;;;;70.05;35.58;;;;;;;;;;6200577;23;20020;-76
2023/01/25 06:45:34;;;;;;;79.22;39.47;;;;;;;;;;6176947;23;20516;-77
2023/01/25 06:48:00;;;;;;;74.20;34.60;;;;;;;;;;6232612;23;20020;-77
2023/01/25 06:50:26;;;;;;;74.88;35.85;;;;;;;;;;6206256;23;20062;-76
2023/01/25 06:52:54;;;;;;;70.93;35.80;;;;;;;;;;6205993;23;20095;-77
2023/01/25 06:55:20;;;;;;;78.10;38.45;;;;;;;;;;6181601;23;20024;-77
2023/01/25 06:57:46;;;;;;;62.45;31.33;;;;;;;;;;6206417;23;20028;-76
2023/01/25 07:00:14;;;;;;;70.88;36.00;;;;;;;;;;6206210;23;20115;-76
2023/01/25 07:02:40;;;;;;;71.43;36.47;;;;;;;;;;6183753;23;20102;-75
2023/01/25 07:05:09;;;;;;;70.50;36.00;;;;;;;;;;6187585;23;20437;-76
2023/01/25 07:07:36;;;;;;;79.95;38.88;;;;;;;;;;6219844;23;20016;-77
2023/01/25 07:10:02;;;;;;;77.10;37.95;;;;;;;;;;6219369;23;20023;-77
2023/01/25 07:12:29;;;;;;;76.85;35.80;;;;;;;;;;6236054;22;20028;-76
2023/01/25 07:14:55;;;;;;;77.45;37.25;;;;;;;;;;6213064;23;20279;-75
2023/01/25 07:17:24;;;;;;;73.80;36.92;;;;;;;;;;6184334;23;20473;-76
2023/01/25 07:19:50;;;;;;;77.25;37.35;;;;;;;;;;6208361;23;20439;-75
2023/01/25 07:22:19;;;;;;;76.75;38.83;;;;;;;;;;6209190;23;20111;-76
2023/01/25 07:24:48;;;;;;;80.47;39.33;;;;;;;;;;6208529;23;20070;-76
2023/01/25 07:27:17;;;;;;;72.95;34.47;;;;;;;;;;6184026;23;20552;-76
2023/01/25 07:29:44;;;;;;;81.88;39.45;;;;;;;;;;6183210;23;20028;-76
2023/01/25 07:32:13;;;;;;;87.18;42.03;;;;;;;;;;6184420;23;20028;-77
2023/01/25 07:34:40;;;;;;;85.40;39.58;;;;;;;;;;6159503;23;20020;-77
2023/01/25 07:37:08;;;;;;;83.72;41.22;;;;;;;;;;6183327;23;20039;-78
2023/01/25 07:39:37;;;;;;;82.80;40.78;;;;;;;;;;6160562;23;20016;-77
2023/01/25 07:42:07;;;;;;;89.60;43.13;;;;;;;;;;6161205;23;20020;-77
2023/01/25 07:44:34;;;;;;;89.07;42.47;;;;;;;;;;6183993;23;20012;-77
2023/01/25 07:47:10;;;;;;;78.97;38.92;;;;;;;;;;6186333;23;20015;-77
2023/01/25 07:49:37;;;;;;;79.00;40.75;;;;;;;;;;6184101;23;20024;-77
2023/01/25 07:52:03;;;;;;;80.53;39.70;;;;;;;;;;6159166;23;20070;-77
2023/01/25 07:54:31;;;;;;;88.78;39.60;;;;;;;;;;6159034;23;20399;-78
2023/01/25 07:56:57;;;;;;;80.82;39.53;;;;;;;;;;6159600;23;20573;-78
2023/01/25 07:59:24;;;;;;;77.13;38.85;;;;;;;;;;6183406;23;20016;-78
2023/01/25 08:01:50;;;;;;;76.25;39.33;;;;;;;;;;6183202;23;20016;-77
2023/01/25 08:04:17;;;;;;;85.10;40.05;;;;;;;;;;6158058;23;20382;-78
2023/01/25 08:06:45;;;;;;;78.82;39.60;;;;;;;;;;6183924;23;20586;-78
2023/01/25 08:09:18;;;;;;;82.28;39.28;;;;;;;;;;6161784;23;20385;-77
2023/01/25 08:11:48;;;;;;;79.72;39.50;;;;;;;;;;6208634;23;20015;-77
2023/01/25 08:14:21;;;;;;;79.30;38.63;;;;;;;;;;6208914;22;20517;-77
2023/01/25 08:16:54;;;;;;;83.78;42.63;;;;;;;;;;6233715;23;20031;-78
2023/01/25 08:19:21;;;;;;;75.07;38.58;;;;;;;;;;6171057;23;20064;-78
2023/01/25 08:21:47;;;;;;;79.47;38.83;;;;;;;;;;6146212;23;20017;-78
2023/01/25 08:24:13;;;;;;;76.97;37.80;;;;;;;;;;6101314;23;20172;-78
2023/01/25 08:26:40;;;;;;;80.38;40.13;;;;;;;;;;6154995;23;20021;-78
2023/01/25 08:29:16;;;;;;;77.13;37.58;;;;;;;;;;6107090;23;20048;-77
2023/01/25 08:31:43;;;;;;;68.60;34.35;;;;;;;;;;6113442;23;20024;-77
2023/01/25 08:34:21;;;;;;;79.85;38.35;;;;;;;;;;6139975;23;20263;-78
2023/01/25 08:36:52;;;;;;;79.22;39.28;;;;;;;;;;6160089;23;20016;-77
2023/01/25 08:39:18;;;;;;;74.72;35.80;;;;;;;;;;6175546;23;20012;-78
2023/01/25 08:41:51;;;;;;;59.47;29.15;;;;;;;;;;6103955;23;20025;-77
2023/01/25 08:44:21;;;;;;;72.30;35.45;;;;;;;;;;6153736;23;20052;-77
2023/01/25 08:46:47;;;;;;;77.72;38.60;;;;;;;;;;6113361;23;20118;-74
2023/01/25 08:49:13;;;;;;;70.28;37.28;;;;;;;;;;6114216;23;20475;-76
2023/01/25 08:51:39;;;;;;;73.97;35.83;;;;;;;;;;6209292;23;20011;-75
2023/01/25 08:54:06;;;;;;;75.60;36.90;;;;;;;;;;6186523;23;20015;-78
2023/01/25 08:56:33;;;;;;;86.97;40.13;;;;;;;;;;6169644;23;20095;-77
2023/01/25 08:58:59;;;;;;;85.22;40.83;;;;;;;;;;6209587;23;20437;-77
2023/01/25 09:01:25;;;;;;;85.50;41.25;;;;;;;;;;6159184;23;20570;-78
2023/01/25 09:03:53;;;;;;;78.50;38.42;;;;;;;;;;6157298;23;20058;-77
2023/01/25 09:06:22;;;;;;;83.90;39.65;;;;;;;;;;6182850;23;20102;-78
2023/01/25 09:08:48;;;;;;;88.20;43.53;;;;;;;;;;6199761;23;20012;-75
2023/01/25 09:11:19;;;;;;;83.90;40.42;;;;;;;;;;6202630;23;20016;-76
2023/01/25 09:13:47;;;;;;;85.22;40.97;;;;;;;;;;6205205;23;20023;-76
2023/01/25 09:16:26;;;;;;;88.97;40.97;;;;;;;;;;6178238;23;20020;-76
2023/01/25 09:18:53;;;;;;;78.85;39.58;;;;;;;;;;6176548;23;20070;-78
2023/01/25 09:21:19;;;;;;;77.47;39.63;;;;;;;;;;6200939;23;20731;-77
2023/01/25 09:23:50;;;;;;;79.78;38.25;;;;;;;;;;6229379;23;20016;-77
2023/01/25 09:26:17;;;;;;;82.70;41.45;;;;;;;;;;6181189;23;20016;-77
2023/01/25 09:28:48;;;;;;;75.80;40.25;;;;;;;;;;6207241;23;20107;-77
2023/01/25 09:31:15;;;;;;;74.85;42.40;;;;;;;;;;6158097;23;20740;-77
2023/01/25 09:33:42;;;;;;;65.05;34.60;;;;;;;;;;6182171;23;20042;-77
2023/01/25 09:36:08;;;;;;;64.30;35.83;;;;;;;;;;6207248;23;20114;-77
2023/01/25 09:38:34;;;;;;;60.17;32.67;;;;;;;;;;6181612;23;20012;-77
2023/01/25 09:41:20;;;;;;;60.22;31.73;;;;;;;;;;6204648;23;20488;-77
2023/01/25 09:43:46;;;;;;;62.90;29.85;;;;;;;;;;6177889;23;20442;-79
2023/01/25 09:46:18;;;;;;;56.17;33.78;;;;;;;;;;6176254;23;20012;-77
2023/01/25 09:48:54;;;;;;;60.88;33.45;;;;;;;;;;6202613;23;20023;-78
2023/01/25 09:51:39;;;;;;;59.15;30.55;;;;;;;;;;6179070;23;20016;-78
2023/01/25 09:54:08;;;;;;;60.03;34.38;;;;;;;;;;6181229;23;20114;-78
2023/01/25 09:56:36;;;;;;;56.03;30.00;;;;;;;;;;6180319;23;20020;-78
2023/01/25 09:59:04;;;;;;;55.47;29.77;;;;;;;;;;6178924;23;20020;-78
2023/01/25 10:01:41;;;;;;;58.15;31.58;;;;;;;;;;6204265;23;20027;-77
2023/01/25 10:04:43;;;;;;;63.25;33.83;;;;;;;;;;6180524;23;20016;-78
2023/01/25 10:07:29;;;;;;;58.80;33.03;;;;;;;;;;6089076;23;20884;-78
2023/01/25 10:10:25;;;;;;;60.97;31.38;;;;;;;;;;6226171;23;20518;-78
2023/01/25 10:12:54;;;;;;;56.92;31.67;;;;;;;;;;6150221;23;20016;-77
2023/01/25 10:15:28;;;;;;;60.58;33.33;;;;;;;;;;6159939;23;20035;-78
2023/01/25 10:17:57;;;;;;;;;;;;;;;;;;6183141;23;20059;-78
2023/01/25 10:20:30;;;;;;;62.08;31.90;;;;;;;;;;6189789;23;19939;-75
2023/01/25 10:23:35;;;;;;;53.33;27.83;;;;;;;;;;6186231;23;20012;-77
2023/01/25 10:26:04;;;;;;;62.80;34.33;;;;;;;;;;6154341;23;20119;-78
2023/01/25 10:28:33;;;;;;;62.78;34.03;;;;;;;;;;6187020;23;20326;-79
2023/01/25 10:31:10;;;;;;;48.00;27.55;;;;;;;;;;6190500;23;20024;-78
2023/01/25 10:33:41;;;;;;;59.42;35.25;;;;;;;;;;6191689;23;20018;-78
2023/01/25 10:36:09;;;;;;;49.47;28.23;;;;;;;;;;6216064;23;20051;-76
2023/01/25 10:38:44;;;;;;;58.17;31.13;;;;;;;;;;6235129;23;20016;-78
2023/01/25 10:41:10;;;;;;;65.68;32.72;;;;;;;;;;6259563;23;20020;-78
2023/01/25 10:43:36;;;;;;;61.88;32.75;;;;;;;;;;6220412;23;20052;-78
2023/01/25 10:46:02;;;;;;;57.85;31.30;;;;;;;;;;6234229;23;20016;-77
2023/01/25 10:48:31;;;;;;;63.10;34.00;;;;;;;;;;6230843;23;20020;-78
2023/01/25 10:50:57;;;;;;;67.10;36.15;;;;;;;;;;6202911;23;20019;-80
2023/01/25 10:53:43;;;;;;;70.57;37.80;;;;;;;;;;6204198;23;20091;-78
2023/01/25 10:56:09;;;;;;;61.75;31.63;;;;;;;;;;6204704;23;20126;-79
2023/01/25 10:58:36;;;;;;;69.25;34.80;;;;;;;;;;6202339;23;20012;-77
2023/01/25 11:01:05;;;;;;;72.63;36.17;;;;;;;;;;6201209;23;20070;-78
2023/01/25 11:03:39;;;;;;;61.22;32.22;;;;;;;;;;6202836;23;20024;-77
2023/01/25 11:06:06;;;;;;;64.35;32.95;;;;;;;;;;6231262;23;20390;-77
2023/01/25 11:08:33;;;;;;;67.95;34.78;;;;;;;;;;6203106;23;20481;-78
2023/01/25 11:11:09;;;;;;;63.85;32.58;;;;;;;;;;6203156;23;20030;-77
2023/01/25 11:13:39;;;;;;;72.78;36.97;;;;;;;;;;6177355;23;20031;-78
2023/01/25 11:16:18;;;;;;;79.78;37.95;;;;;;;;;;6176846;23;20026;-79
2023/01/25 11:18:51;;;;;;;61.90;33.15;;;;;;;;;;6200614;23;20860;-77
2023/01/25 11:21:21;;;;;;;61.53;33.50;;;;;;;;;;6203124;23;20015;-78
2023/01/25 11:24:04;;;;;;;76.47;40.60;;;;;;;;;;6202536;23;20083;-77
2023/01/25 11:26:30;;;;;;;66.95;33.28;;;;;;;;;;6205109;23;20091;-77
2023/01/25 11:29:10;;;;;;;78.97;39.40;;;;;;;;;;6232225;23;20429;-79
2023/01/25 11:31:36;;;;;;;65.38;31.17;;;;;;;;;;6205169;23;20019;-79
2023/01/25 11:34:07;;;;;;;75.90;35.80;;;;;;;;;;6179315;23;20023;-78
2023/01/25 11:36:36;;;;;;;80.22;34.42;;;;;;;;;;6231600;23;20016;-78
2023/01/25 11:39:12;;;;;;;82.40;37.90;;;;;;;;;;6180801;23;20102;-78
2023/01/25 11:41:42;;;;;;;80.60;33.40;;;;;;;;;;6207452;23;20016;-79
2023/01/25 11:44:27;;;;;;;85.43;36.58;;;;;;;;;;6186268;23;20013;-78
2023/01/25 11:47:06;;;;;;;74.70;31.55;;;;;;;;;;6216576;23;20012;-78
2023/01/25 11:49:32;;;;;;;76.90;34.47;;;;;;;;;;6189106;23;20087;-78
2023/01/25 11:52:11;;;;;;;79.72;36.90;;;;;;;;;;6214911;23;20122;-80
2023/01/25 11:55:01;;;;;;;76.20;34.20;;;;;;;;;;6240709;23;20027;-78
2023/01/25 11:57:27;;;;;;;69.13;30.83;;;;;;;;;;6205523;23;20093;-78
2023/01/25 11:59:59;;;;;;;61.88;28.23;;;;;;;;;;6204598;23;20020;-78
2023/01/25 12:02:45;;;;;;;79.82;32.28;;;;;;;;;;6230782;23;20023;-80
2023/01/25 12:05:23;;;;;;;65.13;30.20;;;;;;;;;;6230065;23;20468;-77
2023/01/25 12:07:55;;;;;;;74.88;31.90;;;;;;;;;;6230670;23;20758;-79
2023/01/25 12:10:24;;;;;;;75.90;33.50;;;;;;;;;;6235022;23;20027;-79
2023/01/25 12:12:56;;;;;;;74.82;31.15;;;;;;;;;;6218595;23;20024;-79
2023/01/25 12:15:28;;;;;;;72.47;28.70;;;;;;;;;;6217626;23;20008;-78
2023/01/25 12:18:07;;;;;;;78.05;33.28;;;;;;;;;;6226802;23;20060;-79
2023/01/25 12:20:39;;;;;;;77.45;33.83;;;;;;;;;;6205033;23;20020;-78
2023/01/25 12:23:05;;;;;;;75.35;32.20;;;;;;;;;;6244579;23;20074;-78
2023/01/25 12:25:37;;;;;;;78.32;34.83;;;;;;;;;;6181145;23;20016;-79
2023/01/25 12:28:10;;;;;;;78.93;32.53;;;;;;;;;;6201710;23;20025;-79
2023/01/25 12:30:42;;;;;;;55.17;26.10;;;;;;;;;;6203759;23;20284;-78
2023/01/25 12:33:22;;;;;;;79.05;30.02;;;;;;;;;;6197919;23;20019;-78
2023/01/25 12:35:57;;;;;;;70.40;28.05;;;;;;;;;;6172900;23;20054;-78
2023/01/25 12:38:26;;;;;;;80.30;33.33;;;;;;;;;;6195994;23;20035;-78
2023/01/25 12:40:54;;;;;;;68.53;27.55;;;;;;;;;;6170842;23;20036;-78
2023/01/25 12:43:24;;;;;;;72.28;30.65;;;;;;;;;;6201569;23;20020;-77
2023/01/25 12:45:50;;;;;;;88.53;35.28;;;;;;;;;;6200037;23;20032;-76
2023/01/25 12:48:22;;;;;;;60.00;26.40;;;;;;;;;;6175812;23;20016;-76
2023/01/25 12:50:52;;;;;;;77.55;30.70;;;;;;;;;;6175402;23;20071;-77
2023/01/25 12:53:18;;;;;;;98.38;37.40;;;;;;;;;;6201542;23;20092;-78
2023/01/25 12:55:44;;;;;;;84.20;33.03;;;;;;;;;;6173981;23;20879;-76
2023/01/25 12:58:10;;;;;;;89.40;34.28;;;;;;;;;;6198460;23;20033;-76
2023/01/25 13:00:44;;;;;;;86.45;35.45;;;;;;;;;;6197995;23;20057;-77
2023/01/25 13:03:21;;;;;;;82.82;33.67;;;;;;;;;;6199141;23;20071;-77
2023/01/25 13:05:53;;;;;;;78.75;31.75;;;;;;;;;;6198036;23;20435;-76
2023/01/25 13:08:39;;;;;;;70.25;25.45;;;;;;;;;;6174499;23;20021;-76
2023/01/25 13:11:12;;;;;;;83.35;32.38;;;;;;;;;;6171824;23;20078;-76
2023/01/25 13:13:38;;;;;;;77.35;29.17;;;;;;;;;;6202193;23;20207;-77
2023/01/25 13:16:24;;;;;;;88.93;32.83;;;;;;;;;;6199249;23;20103;-76
2023/01/25 13:18:51;;;;;;;78.75;32.20;;;;;;;;;;6202165;23;20023;-77
2023/01/25 13:21:35;;;;;;;87.03;33.38;;;;;;;;;;6202189;23;20051;-77
2023/01/25 13:24:22;;;;;;;78.97;29.08;;;;;;;;;;6200992;23;20044;-77
2023/01/25 13:26:50;;;;;;;74.10;29.52;;;;;;;;;;6206138;23;20058;-76
2023/01/25 13:29:45;;;;;;;75.28;31.55;;;;;;;;;;6206274;23;20030;-76
2023/01/25 13:32:11;;;;;;;89.50;36.58;;;;;;;;;;6206586;23;20102;-75
2023/01/25 13:34:41;;;;;;;77.13;28.45;;;;;;;;;;6181055;23;20091;-77
2023/01/25 13:37:16;;;;;;;87.72;34.78;;;;;;;;;;6206658;23;20047;-77
2023/01/25 13:39:43;;;;;;;88.13;32.60;;;;;;;;;;6180384;23;20074;-76
2023/01/25 13:42:09;;;;;;;81.90;30.65;;;;;;;;;;6174347;23;20099;-74
2023/01/25 13:44:38;;;;;;;77.20;30.38;;;;;;;;;;6228641;23;20058;-75
2023/01/25 13:47:06;;;;;;;83.57;32.53;;;;;;;;;;6199413;23;20026;-75
2023/01/25 13:49:53;;;;;;;90.00;35.05;;;;;;;;;;6228886;23;20023;-77
2023/01/25 13:52:21;;;;;;;75.95;28.27;;;;;;;;;;6178712;23;20019;-76
2023/01/25 13:54:47;;;;;;;68.18;28.13;;;;;;;;;;6180422;23;20099;-81
2023/01/25 13:57:15;;;;;;;81.72;32.05;;;;;;;;;;6184493;23;20040;-81
2023/01/25 13:59:41;;;;;;;69.45;26.77;;;;;;;;;;6220779;23;20358;-80
2023/01/25 14:02:21;;;;;;;76.25;30.42;;;;;;;;;;6227550;23;20015;-81
2023/01/25 14:04:48;;;;;;;70.47;25.48;;;;;;;;;;6231698;23;20092;-80
2023/01/25 14:07:19;;;;;;;72.95;29.20;;;;;;;;;;6223613;23;20026;-80
2023/01/25 14:09:46;;;;;;;73.65;29.50;;;;;;;;;;6202873;23;20020;-80
2023/01/25 14:12:24;;;;;;;81.15;32.33;;;;;;;;;;6202044;23;20385;-80
2023/01/25 14:14:50;;;;;;;81.18;30.52;;;;;;;;;;6229076;22;20018;-80
2023/01/25 14:17:16;;;;;;;78.82;27.40;;;;;;;;;;6152901;23;20044;-81
2023/01/25 14:20:03;;;;;;;68.90;25.25;;;;;;;;;;6176780;23;20537;-80
2023/01/25 14:22:30;;;;;;;82.47;30.70;;;;;;;;;;6203369;23;20106;-80
2023/01/25 14:25:13;;;;;;;82.80;31.63;;;;;;;;;;6177860;23;20047;-80
2023/01/25 14:28:05;;;;;;;78.10;28.92;;;;;;;;;;6202941;23;20078;-82
2023/01/25 14:30:33;;;;;;;73.95;28.67;;;;;;;;;;6204197;23;20026;-81